Time;durP1;ratioP1;P1;durP2;ratioP2;P2;SDS_P1;SDS_P2;PMS_P1;PMS_P2;Temp;Humidity;BMP_temperature;BMP_pressure;BME280_temperature;BME280_humidity;BME280_pressure;Samples;Min_cycle;Max_cycle;Signal;HPM_P1;HPM_P2
2021/03/05 00:01:48;;;;;;;25.67;16.98;;;;;;;10.54;90.62;100935.22;4865020;29;20029;-73
2021/03/05 00:04:34;;;;;;;23.98;15.90;;;;;;;10.74;88.69;100927.94;4865161;29;20087;-73
2021/03/05 00:07:20;;;;;;;25.88;16.15;;;;;;;10.75;89.06;100924.44;4865094;29;20037;-74
2021/03/05 00:10:09;;;;;;;25.67;16.27;;;;;;;11.22;87.08;100914.06;4864698;29;20030;-73
2021/03/05 00:12:55;;;;;;;24.30;14.82;;;;;;;11.01;88.01;100930.13;4864095;29;20065;-73
2021/03/05 00:15:44;;;;;;;24.75;15.43;;;;;;;10.89;88.42;100921.63;4864443;29;20363;-73
2021/03/05 00:18:30;;;;;;;25.27;15.55;;;;;;;10.74;89.75;100924.44;4877431;29;20029;-73
2021/03/05 00:21:15;;;;;;;25.88;14.93;;;;;;;10.81;89.24;100920.88;4864874;29;20104;-73
2021/03/05 00:24:01;;;;;;;24.42;14.73;;;;;;;11.08;87.50;100926.53;4865250;29;20057;-71
2021/03/05 00:26:47;;;;;;;25.38;15.32;;;;;;;11.01;87.08;100924.88;4865311;29;20086;-73
2021/03/05 00:29:33;;;;;;;25.27;15.80;;;;;;;10.96;87.63;100917.97;4865696;29;20029;-73
2021/03/05 00:32:19;;;;;;;26.83;16.20;;;;;;;10.75;89.45;100919.19;4864720;29;20116;-73
2021/03/05 00:35:08;;;;;;;32.75;21.00;;;;;;;10.97;89.59;100910.09;4864834;29;20021;-73
2021/03/05 00:37:53;;;;;;;32.45;18.30;;;;;;;10.85;90.89;100907.66;4865011;29;20029;-73
2021/03/05 00:40:39;;;;;;;28.45;17.25;;;;;;;10.87;92.15;100908.53;4863550;29;20060;-73
2021/03/05 00:43:25;;;;;;;29.17;16.42;;;;;;;10.80;93.49;100903.41;4865027;29;20401;-74
2021/03/05 00:46:11;;;;;;;27.52;16.58;;;;;;;10.95;92.77;100909.28;4864200;29;20519;-73
2021/03/05 00:48:56;;;;;;;24.90;14.80;;;;;;;10.92;93.68;100904.06;4863951;29;20044;-73
2021/03/05 00:51:42;;;;;;;23.25;14.88;;;;;;;10.70;95.42;100902.69;4864276;29;20112;-73
2021/03/05 00:54:28;;;;;;;26.48;15.60;;;;;;;10.69;97.24;100907.94;4863442;29;20048;-73
2021/03/05 00:57:14;;;;;;;28.83;15.48;;;;;;;10.32;100.00;100898.88;4866845;29;20032;-73
2021/03/05 01:00:00;;;;;;;24.95;15.75;;;;;;;10.25;100.00;100907.69;4867168;29;20385;-73
2021/03/05 01:02:46;;;;;;;25.02;15.02;;;;;;;10.19;100.00;100908.63;4863175;29;20050;-74
2021/03/05 01:05:32;;;;;;;25.10;15.43;;;;;;;9.54;100.00;100911.13;4863918;29;20025;-72
2021/03/05 01:08:18;;;;;;;22.48;14.45;;;;;;;9.81;100.00;100908.22;4864052;29;20038;-73
2021/03/05 01:11:03;;;;;;;27.55;15.43;;;;;;;9.91;100.00;100909.81;4863674;29;20030;-73
2021/03/05 01:13:49;;;;;;;22.52;14.50;;;;;;;9.64;100.00;100913.63;4862658;29;20061;-73
2021/03/05 01:16:35;;;;;;;22.92;14.18;;;;;;;9.83;100.00;100915.16;4863480;29;20029;-74
2021/03/05 01:19:23;;;;;;;25.60;15.15;;;;;;;9.43;100.00;100905.13;4863652;29;20041;-74
2021/03/05 01:22:09;;;;;;;29.13;15.20;;;;;;;9.32;100.00;100904.34;4863359;29;20404;-73
2021/03/05 01:24:55;;;;;;;23.83;15.15;;;;;;;9.63;100.00;100903.16;4863726;29;20040;-73
2021/03/05 01:27:41;;;;;;;25.27;15.45;;;;;;;9.02;100.00;100899.41;4863986;29;20041;-73
2021/03/05 01:30:27;;;;;;;25.58;16.08;;;;;;;9.14;100.00;100891.47;4863740;29;20037;-73
2021/03/05 01:33:12;;;;;;;25.83;16.08;;;;;;;9.48;100.00;100898.09;4863522;29;20033;-73
2021/03/05 01:35:58;;;;;;;29.48;16.08;;;;;;;9.09;100.00;100895.88;4862858;29;20022;-73
2021/03/05 01:38:44;;;;;;;27.85;17.00;;;;;;;8.78;100.00;100892.63;4862655;29;20455;-73
2021/03/05 01:41:31;;;;;;;28.85;16.95;;;;;;;8.70;100.00;100893.56;4863718;29;20038;-74
2021/03/05 01:44:17;;;;;;;26.92;17.13;;;;;;;8.46;100.00;100898.94;4863307;29;20029;-72
2021/03/05 01:47:03;;;;;;;28.20;17.00;;;;;;;9.02;100.00;100889.84;4862966;29;20032;-72
2021/03/05 01:49:49;;;;;;;24.98;16.85;;;;;;;9.14;100.00;100891.47;4862902;29;20084;-73
2021/03/05 01:52:35;;;;;;;27.38;16.30;;;;;;;8.85;100.00;100890.84;4862702;29;20040;-73
2021/03/05 01:55:20;;;;;;;25.33;16.00;;;;;;;9.30;100.00;100891.31;4864197;29;20033;-73
2021/03/05 01:58:07;;;;;;;26.30;16.75;;;;;;;9.57;100.00;100888.41;4863112;29;20037;-74
2021/03/05 02:01:03;;;;;;;29.23;15.95;;;;;;;9.26;100.00;100883.50;4863690;29;20400;-73
2021/03/05 02:03:49;;;;;;;31.02;16.27;;;;;;;9.47;100.00;100884.16;4862479;29;20497;-72
2021/03/05 02:06:35;;;;;;;29.90;17.75;;;;;;;9.62;100.00;100886.59;4863843;29;20041;-75
2021/03/05 02:09:21;;;;;;;30.15;17.15;;;;;;;9.49;100.00;100878.91;4861876;29;20029;-74
2021/03/05 02:12:08;;;;;;;31.63;17.95;;;;;;;9.73;100.00;100881.28;4862775;29;20116;-73
2021/03/05 02:14:54;;;;;;;33.78;17.55;;;;;;;9.47;100.00;100883.28;4862913;29;20021;-72
2021/03/05 02:17:56;;;;;;;31.65;17.00;;;;;;;9.26;100.00;100878.28;4862674;29;20435;-73
2021/03/05 02:21:23;;;;;;;27.55;16.33;;;;;;;9.23;100.00;100891.38;4863169;29;20061;-72
2021/03/05 02:24:20;;;;;;;29.27;17.20;;;;;;;9.53;100.00;100889.31;4862661;29;20045;-72
2021/03/05 02:27:18;;;;;;;31.08;17.58;;;;;;;9.70;100.00;100887.38;4862767;29;20424;-73
2021/03/05 02:30:12;;;;;;;30.88;17.02;;;;;;;9.49;100.00;100889.38;4862477;29;20513;-73
2021/03/05 02:33:16;;;;;;;32.83;19.05;;;;;;;9.38;100.00;100899.06;4862472;29;20429;-73
2021/03/05 02:36:04;;;;;;;28.83;16.75;;;;;;;9.50;100.00;100893.72;4862479;29;20033;-72
2021/03/05 02:39:22;;;;;;;25.67;16.17;;;;;;;9.43;100.00;100892.94;4874656;29;20048;-73
2021/03/05 02:42:14;;;;;;;27.95;16.15;;;;;;;9.54;100.00;100896.31;4861169;29;20029;-74
2021/03/05 02:45:07;;;;;;;25.80;16.50;;;;;;;9.26;100.00;100894.84;4862294;29;20526;-74
2021/03/05 02:48:00;;;;;;;25.40;16.20;;;;;;;9.61;100.00;100912.78;4862246;29;20037;-72
2021/03/05 02:50:52;;;;;;;29.42;16.95;;;;;;;9.75;99.39;100910.88;4862308;29;20385;-73
2021/03/05 02:53:41;;;;;;;31.40;17.85;;;;;;;9.88;98.82;100925.56;4861961;29;20033;-74
2021/03/05 02:56:31;;;;;;;32.22;18.77;;;;;;;9.70;100.00;100929.22;4861337;29;20034;-73
2021/03/05 02:59:17;;;;;;;30.65;18.05;;;;;;;9.90;98.89;100932.50;4874476;29;20029;-73
2021/03/05 03:02:05;;;;;;;28.30;17.02;;;;;;;9.91;99.68;100928.16;4861182;29;20371;-73
2021/03/05 03:04:52;;;;;;;32.75;19.70;;;;;;;9.93;100.00;100927.25;4860151;29;20037;-73
2021/03/05 03:07:40;;;;;;;29.55;19.05;;;;;;;9.79;100.00;100942.25;4861519;29;20029;-73
2021/03/05 03:10:28;;;;;;;27.10;16.48;;;;;;;9.47;100.00;100938.22;4874038;29;20036;-73
2021/03/05 03:13:15;;;;;;;22.15;14.82;;;;;;;9.70;100.00;100938.84;4874753;29;20052;-73
2021/03/05 03:16:03;;;;;;;22.05;14.45;;;;;;;9.60;100.00;100939.81;4861342;29;20100;-73
2021/03/05 03:18:49;;;;;;;23.92;15.40;;;;;;;9.42;100.00;100932.16;4861865;29;20041;-73
2021/03/05 03:21:35;;;;;;;24.13;15.23;;;;;;;9.22;100.00;100931.47;4861793;29;20025;-73
2021/03/05 03:24:21;;;;;;;24.55;14.93;;;;;;;9.14;100.00;100941.13;4861883;29;20039;-73
2021/03/05 03:27:09;;;;;;;25.25;15.98;;;;;;;9.19;100.00;100936.72;4861862;29;20037;-73
2021/03/05 03:29:54;;;;;;;26.02;15.68;;;;;;;9.00;100.00;100933.38;4861748;29;20033;-73
2021/03/05 03:32:41;;;;;;;26.67;15.90;;;;;;;8.71;100.00;100939.69;4860824;29;20029;-73
2021/03/05 03:35:28;;;;;;;32.47;18.70;;;;;;;8.38;100.00;100934.66;4861512;29;20097;-74
2021/03/05 03:38:14;;;;;;;32.63;18.33;;;;;;;8.77;100.00;100935.28;4861338;29;20093;-74
2021/03/05 03:41:01;;;;;;;34.50;20.90;;;;;;;8.29;100.00;100939.94;4860906;29;20026;-73
2021/03/05 03:43:47;;;;;;;32.55;20.52;;;;;;;8.70;100.00;100937.97;4861997;29;20033;-73
2021/03/05 03:46:37;;;;;;;31.83;19.60;;;;;;;8.72;100.00;100934.47;4861414;29;20185;-74
2021/03/05 03:49:33;;;;;;;33.08;19.40;;;;;;;9.34;100.00;100939.22;4862282;29;20033;-73
2021/03/05 03:52:27;;;;;;;29.73;19.83;;;;;;;9.43;100.00;100936.50;4861147;29;20462;-72
2021/03/05 03:55:13;;;;;;;31.55;19.27;;;;;;;9.58;100.00;100928.50;4862100;29;20037;-73
2021/03/05 03:58:00;;;;;;;28.52;18.27;;;;;;;9.91;99.56;100939.50;4862774;29;20045;-73
2021/03/05 04:00:46;;;;;;;28.98;18.77;;;;;;;9.97;96.74;100935.94;4862232;29;20037;-74
2021/03/05 04:03:34;;;;;;;24.83;17.63;;;;;;;9.92;96.72;100935.97;4860722;29;20136;-74
2021/03/05 04:06:23;;;;;;;29.35;17.13;;;;;;;9.91;96.92;100933.38;4861502;29;20037;-71
2021/03/05 04:09:10;;;;;;;28.65;19.42;;;;;;;9.60;99.94;100935.47;4860730;29;20048;-73
2021/03/05 04:11:57;;;;;;;34.10;20.45;;;;;;;9.59;100.00;100933.72;4861589;29;20359;-74
2021/03/05 04:14:42;;;;;;;31.58;19.75;;;;;;;9.27;100.00;100942.75;4861119;29;20033;-72
2021/03/05 04:17:29;;;;;;;30.33;18.40;;;;;;;9.16;100.00;100931.50;4863916;29;20032;-73
2021/03/05 04:20:19;;;;;;;24.88;16.65;;;;;;;8.85;100.00;100932.66;4865377;29;20025;-74
2021/03/05 04:23:05;;;;;;;25.30;17.23;;;;;;;8.50;100.00;100942.44;4863223;29;20098;-73
2021/03/05 04:25:51;;;;;;;27.40;16.85;;;;;;;8.79;100.00;100944.00;4865191;29;20097;-73
2021/03/05 04:28:37;;;;;;;28.10;17.48;;;;;;;8.50;100.00;100929.38;4863775;29;20064;-73
2021/03/05 04:31:23;;;;;;;28.58;17.25;;;;;;;8.38;100.00;100942.50;4863936;29;20101;-73
2021/03/05 04:34:08;;;;;;;27.30;17.55;;;;;;;8.54;100.00;100936.31;4864959;29;20033;-73
2021/03/05 04:36:54;;;;;;;33.38;18.25;;;;;;;8.05;100.00;100935.66;4864687;29;20064;-73
2021/03/05 04:39:43;;;;;;;32.90;18.55;;;;;;;8.44;100.00;100934.66;4864190;29;20041;-73
2021/03/05 04:42:29;;;;;;;34.47;20.10;;;;;;;8.52;100.00;100933.72;4864254;29;20033;-73
2021/03/05 04:45:15;;;;;;;32.17;19.85;;;;;;;8.41;100.00;100939.88;4867195;29;20354;-73
2021/03/05 04:48:01;;;;;;;32.00;20.17;;;;;;;8.49;100.00;100943.31;4868063;29;20040;-73
2021/03/05 04:50:46;;;;;;;31.30;19.65;;;;;;;8.54;100.00;100947.66;4866940;29;20030;-73
2021/03/05 04:53:32;;;;;;;34.90;20.33;;;;;;;8.47;100.00;100945.06;4863812;29;20101;-75
2021/03/05 04:56:19;;;;;;;28.92;19.13;;;;;;;8.67;100.00;100946.69;4863830;29;20066;-74
2021/03/05 04:59:05;;;;;;;33.83;20.40;;;;;;;8.49;100.00;100949.38;4876752;29;20522;-73
2021/03/05 05:01:51;;;;;;;37.13;20.15;;;;;;;8.89;100.00;100943.03;4863484;29;20034;-73
2021/03/05 05:04:36;;;;;;;34.80;20.85;;;;;;;9.05;97.45;100947.28;4863816;29;20045;-73
2021/03/05 05:07:22;;;;;;;33.42;19.75;;;;;;;9.09;95.40;100949.00;4862851;29;20136;-74
2021/03/05 05:10:09;;;;;;;29.83;20.05;;;;;;;9.20;95.10;100955.00;4862996;29;20044;-74
2021/03/05 05:12:55;;;;;;;36.35;22.05;;;;;;;9.39;93.79;100953.09;4863772;29;20035;-73
2021/03/05 05:15:40;;;;;;;37.03;21.63;;;;;;;9.50;92.25;100961.72;4863108;29;20033;-74
2021/03/05 05:18:26;;;;;;;36.95;22.70;;;;;;;9.29;92.40;100972.38;4863242;29;20032;-74
2021/03/05 05:21:12;;;;;;;35.05;22.75;;;;;;;9.25;92.80;100966.28;4863778;29;20037;-73
2021/03/05 05:23:58;;;;;;;35.80;23.63;;;;;;;9.47;92.79;100973.09;4862712;29;20093;-73
2021/03/05 05:26:43;;;;;;;34.03;21.40;;;;;;;9.34;92.98;100973.19;4863401;29;20057;-74
2021/03/05 05:29:29;;;;;;;37.75;20.90;;;;;;;9.31;90.76;100984.56;4863261;29;20026;-73
2021/03/05 05:32:15;;;;;;;37.83;21.60;;;;;;;9.71;88.46;100985.06;4864022;29;20061;-73
2021/03/05 05:35:00;;;;;;;40.45;22.75;;;;;;;9.42;87.22;100981.84;4863043;29;20060;-72
2021/03/05 05:37:46;;;;;;;40.88;22.40;;;;;;;9.68;85.46;100980.72;4875738;29;20523;-73
2021/03/05 05:40:32;;;;;;;39.30;22.90;;;;;;;9.82;84.61;100993.66;4861919;29;20044;-73
2021/03/05 05:43:18;;;;;;;45.13;22.73;;;;;;;9.68;83.50;100995.53;4862622;29;20029;-73
2021/03/05 05:46:06;;;;;;;38.70;22.83;;;;;;;9.63;82.73;100998.22;4862364;29;20037;-73
2021/03/05 05:48:52;;;;;;;42.25;22.08;;;;;;;9.78;82.38;101002.44;4863072;29;20033;-73
2021/03/05 05:51:40;;;;;;;40.78;21.05;;;;;;;9.70;82.38;101005.09;4862161;29;20025;-73
2021/03/05 05:54:27;;;;;;;38.45;21.90;;;;;;;9.86;80.98;101001.44;4861609;29;20033;-73
2021/03/05 05:57:14;;;;;;;43.58;22.27;;;;;;;9.83;80.62;101006.75;4861966;29;20029;-73
2021/03/05 06:00:00;;;;;;;56.13;22.67;;;;;;;10.00;80.30;101006.56;4862840;29;20026;-74
2021/03/05 06:02:47;;;;;;;44.78;22.27;;;;;;;10.70;76.99;101017.97;4862302;29;20049;-73
2021/03/05 06:05:33;;;;;;;38.17;21.38;;;;;;;10.47;76.24;101013.91;4861959;29;20048;-74
2021/03/05 06:08:19;;;;;;;39.03;20.83;;;;;;;10.27;77.84;101016.75;4875784;29;20071;-73
2021/03/05 06:11:05;;;;;;;34.53;20.98;;;;;;;10.42;78.34;101016.59;4862235;29;20029;-73
2021/03/05 06:13:51;;;;;;;39.03;21.27;;;;;;;10.32;78.09;101020.19;4863447;29;20078;-74
2021/03/05 06:16:58;;;;;;;36.20;21.40;;;;;;;10.53;77.36;101021.69;4862146;29;20044;-73
2021/03/05 06:19:44;;;;;;;38.65;21.55;;;;;;;10.50;77.37;101027.84;4862852;29;20139;-74
2021/03/05 06:22:30;;;;;;;48.35;21.02;;;;;;;10.71;75.42;101024.06;4874294;29;20053;-73
2021/03/05 06:25:34;;;;;;;36.65;20.98;;;;;;;10.78;74.99;101024.00;4874969;29;20126;-74
2021/03/05 06:28:20;;;;;;;35.95;19.60;;;;;;;10.78;73.78;101012.63;4874520;29;20375;-73
2021/03/05 06:31:15;;;;;;;39.45;20.25;;;;;;;10.88;73.70;101015.09;4863078;29;20025;-74
2021/03/05 06:34:03;;;;;;;32.45;20.27;;;;;;;11.29;73.13;101014.50;4862185;29;20139;-75
2021/03/05 06:37:00;;;;;;;29.10;18.70;;;;;;;11.29;70.20;101010.09;4862463;29;20030;-73
2021/03/05 06:40:10;;;;;;;29.77;17.58;;;;;;;11.44;67.20;101007.25;4860879;29;20489;-74
2021/03/05 06:42:57;;;;;;;28.35;18.35;;;;;;;11.34;66.18;101018.78;4862595;29;20034;-74
2021/03/05 06:45:43;;;;;;;29.02;18.88;;;;;;;11.67;65.09;101015.63;4861401;29;20372;-74
2021/03/05 06:48:28;;;;;;;26.67;17.77;;;;;;;11.75;64.17;101019.00;4863427;29;20029;-75
2021/03/05 06:51:14;;;;;;;30.95;17.58;;;;;;;11.71;63.70;101019.94;4861884;29;20034;-73
2021/03/05 06:54:08;;;;;;;40.08;18.33;;;;;;;11.89;63.09;101024.00;4862130;29;20443;-73
2021/03/05 06:56:54;;;;;;;27.10;18.13;;;;;;;11.79;63.39;101025.03;4861740;29;20044;-73
2021/03/05 06:59:44;;;;;;;30.63;18.55;;;;;;;12.13;61.52;101036.69;4861216;29;20393;-73
2021/03/05 07:02:31;;;;;;;29.30;18.52;;;;;;;12.21;60.29;101027.75;4861650;29;20089;-74
2021/03/05 07:05:17;;;;;;;32.35;19.92;;;;;;;12.25;59.83;101028.53;4860787;29;20070;-72
2021/03/05 07:08:03;;;;;;;32.40;18.98;;;;;;;12.08;61.04;101031.50;4861888;29;20033;-73
2021/03/05 07:10:49;;;;;;;36.17;20.48;;;;;;;11.96;60.99;101033.47;4861658;29;20022;-73
2021/03/05 07:13:52;;;;;;;28.20;19.00;;;;;;;12.03;62.80;101036.00;4861879;29;20034;-73
2021/03/05 07:16:49;;;;;;;29.70;18.92;;;;;;;12.63;61.00;101034.78;4861409;29;20442;-73
2021/03/05 07:19:36;;;;;;;35.58;19.77;;;;;;;12.22;60.70;101039.97;4874404;29;20037;-73
2021/03/05 07:22:27;;;;;;;29.38;19.05;;;;;;;12.28;60.51;101034.63;4860374;29;20033;-73
2021/03/05 07:25:16;;;;;;;30.08;19.30;;;;;;;12.53;59.57;101042.88;4861631;29;20030;-73
2021/03/05 07:28:02;;;;;;;33.95;20.60;;;;;;;12.60;58.21;101029.59;4861398;29;20379;-73
2021/03/05 07:30:48;;;;;;;32.80;19.83;;;;;;;12.53;58.07;101030.59;4862301;29;20037;-74
2021/03/05 07:33:38;;;;;;;34.00;21.08;;;;;;;12.79;57.76;101023.06;4861681;29;20034;-74
2021/03/05 07:36:29;;;;;;;31.23;20.02;;;;;;;12.92;57.17;101024.50;4861179;29;20104;-74
2021/03/05 07:39:23;;;;;;;34.17;21.15;;;;;;;12.79;57.47;101024.81;4861148;29;20077;-74
2021/03/05 07:42:09;;;;;;;32.53;21.08;;;;;;;13.21;57.17;101021.25;4861499;29;20021;-72
2021/03/05 07:44:56;;;;;;;32.20;20.80;;;;;;;13.09;57.68;101021.53;4861703;29;20034;-74
2021/03/05 07:47:45;;;;;;;33.90;21.42;;;;;;;13.74;56.88;101021.66;4860352;29;20041;-73
2021/03/05 07:50:31;;;;;;;31.00;20.30;;;;;;;13.36;58.40;101024.41;4862713;29;20037;-73
2021/03/05 07:53:17;;;;;;;31.73;19.77;;;;;;;13.34;58.43;101018.28;4863716;29;20045;-73
2021/03/05 07:56:02;;;;;;;29.70;20.17;;;;;;;13.52;57.67;101009.97;4864971;29;20040;-73
2021/03/05 07:58:48;;;;;;;35.13;20.23;;;;;;;13.68;57.38;101015.69;4864742;29;20029;-72
2021/03/05 08:01:55;;;;;;;33.53;20.02;;;;;;;13.66;57.80;101014.84;4865577;29;20062;-73
2021/03/05 08:04:48;;;;;;;32.22;20.55;;;;;;;13.88;56.78;101021.31;4863700;29;20061;-72
2021/03/05 08:07:38;;;;;;;28.88;19.48;;;;;;;14.03;56.84;101020.91;4865543;29;20033;-73
2021/03/05 08:10:45;;;;;;;31.60;19.98;;;;;;;14.21;56.33;101010.78;4863972;29;20506;-74
2021/03/05 08:13:46;;;;;;;31.70;19.67;;;;;;;14.37;56.28;101012.09;4865766;29;20033;-74
2021/03/05 08:16:58;;;;;;;26.30;18.73;;;;;;;14.61;54.00;101013.13;4864818;29;20025;-77
2021/03/05 08:19:46;;;;;;;30.17;17.73;;;;;;;14.65;54.37;101005.09;4866496;29;20061;-73
2021/03/05 08:23:28;;;;;;;25.23;17.17;;;;;;;14.91;53.68;101012.22;4865966;29;20379;-75
2021/03/05 08:26:13;;;;;;;33.90;18.10;;;;;;;15.05;52.36;101001.25;4865961;29;20033;-75
2021/03/05 08:29:05;;;;;;;28.73;20.27;;;;;;;15.22;52.22;101007.72;4864325;29;20021;-74
2021/03/05 08:31:51;;;;;;;26.92;18.30;;;;;;;15.69;51.37;101011.47;4865318;29;20041;-74
2021/03/05 08:34:51;;;;;;;25.08;18.38;;;;;;;16.04;51.48;101001.41;4864238;29;20029;-74
2021/03/05 08:37:43;;;;;;;31.50;18.60;;;;;;;16.64;49.24;101001.88;4865436;29;20037;-76
2021/03/05 08:40:34;;;;;;;30.40;18.52;;;;;;;16.24;50.41;101004.22;4863943;29;20049;-73
2021/03/05 08:43:30;;;;;;;27.40;18.33;;;;;;;16.52;48.73;101002.31;4864952;29;20458;-73
2021/03/05 08:46:17;;;;;;;28.60;18.88;;;;;;;16.56;48.58;101009.22;4863476;29;20113;-73
2021/03/05 08:49:03;;;;;;;27.15;19.20;;;;;;;16.63;48.97;101001.97;4865405;29;20044;-76
2021/03/05 08:51:49;;;;;;;26.83;19.27;;;;;;;16.79;48.65;101003.06;4866215;29;20029;-72
2021/03/05 08:54:35;;;;;;;32.40;20.95;;;;;;;16.70;49.00;101000.78;4864397;29;20033;-74
2021/03/05 08:57:21;;;;;;;28.73;19.25;;;;;;;17.07;48.05;100999.31;4876316;29;20104;-73
2021/03/05 09:00:10;;;;;;;28.17;18.77;;;;;;;17.26;47.97;100994.13;4863980;29;20347;-74
2021/03/05 09:03:13;;;;;;;25.55;18.45;;;;;;;17.56;46.25;100991.13;4863219;29;20470;-74
2021/03/05 09:05:59;;;;;;;26.25;18.50;;;;;;;17.33;47.01;100982.38;4864090;29;20038;-74
2021/03/05 09:08:44;;;;;;;29.65;18.88;;;;;;;16.81;48.19;100995.94;4864354;29;20048;-73
2021/03/05 09:11:30;;;;;;;30.15;19.90;;;;;;;17.19;48.79;100985.59;4863653;29;20093;-74
2021/03/05 09:14:23;;;;;;;31.52;20.15;;;;;;;17.33;47.73;100982.38;4863843;29;20093;-73
2021/03/05 09:17:10;;;;;;;29.65;19.65;;;;;;;17.36;47.80;100982.25;4862989;29;20018;-73
2021/03/05 09:19:56;;;;;;;26.10;19.73;;;;;;;17.58;47.78;100983.13;4864934;29;20072;-74
2021/03/05 09:22:42;;;;;;;34.42;20.77;;;;;;;17.30;48.55;100974.53;4863833;29;20113;-74
2021/03/05 09:25:30;;;;;;;29.70;20.25;;;;;;;17.37;48.71;100981.31;4876581;29;20038;-74
2021/03/05 09:28:17;;;;;;;30.85;20.88;;;;;;;17.58;47.53;100973.41;4863290;29;20029;-73
2021/03/05 09:31:03;;;;;;;27.95;20.02;;;;;;;17.28;48.37;100976.41;4864414;29;20498;-74
2021/03/05 09:33:49;;;;;;;31.83;20.52;;;;;;;17.59;48.00;100979.53;4863793;29;20085;-74
2021/03/05 09:36:38;;;;;;;38.42;27.38;;;;;;;18.05;47.79;100981.97;4864577;29;20089;-73
2021/03/05 09:39:24;;;;;;;30.35;19.75;;;;;;;17.66;48.88;100976.59;4876087;29;20034;-73
2021/03/05 09:42:11;;;;;;;29.13;19.45;;;;;;;17.88;47.98;100971.22;4863314;29;20045;-74
2021/03/05 09:44:57;;;;;;;26.98;19.00;;;;;;;17.89;47.99;100972.94;4862013;29;20033;-74
2021/03/05 09:47:46;;;;;;;32.65;21.02;;;;;;;17.79;48.74;100963.66;4862189;29;20030;-75
2021/03/05 09:50:33;;;;;;;32.22;20.30;;;;;;;17.83;49.21;100973.19;4863032;29;20104;-75
2021/03/05 09:53:36;;;;;;;37.08;20.90;;;;;;;18.52;48.26;100963.00;4861711;29;20388;-73
2021/03/05 09:56:26;;;;;;;44.63;32.03;;;;;;;18.13;46.23;100967.41;4863390;29;20044;-74
2021/03/05 09:59:13;;;;;;;27.98;17.42;;;;;;;18.24;42.78;100962.50;4862701;29;20030;-74
2021/03/05 10:01:59;;;;;;;29.52;18.67;;;;;;;18.44;40.56;100951.88;4875241;29;20056;-74
2021/03/05 10:04:46;;;;;;;23.73;17.10;;;;;;;18.61;40.12;100961.72;4862553;29;20029;-73
2021/03/05 10:07:31;;;;;;;24.15;16.80;;;;;;;18.65;38.98;100963.31;4862787;29;20044;-75
2021/03/05 10:10:17;;;;;;;22.20;16.92;;;;;;;18.82;37.86;100955.41;4861740;29;20105;-73
2021/03/05 10:13:03;;;;;;;23.50;16.60;;;;;;;18.97;36.28;100949.38;4874769;29;20033;-74
2021/03/05 10:15:50;;;;;;;22.80;15.57;;;;;;;18.81;36.71;100945.72;4862600;29;20451;-73
2021/03/05 10:18:37;;;;;;;25.10;16.35;;;;;;;18.92;36.93;100944.28;4861622;29;20037;-73
2021/03/05 10:21:23;;;;;;;23.90;15.98;;;;;;;19.07;36.26;100945.31;4862692;29;20112;-73
2021/03/05 10:24:14;;;;;;;22.15;15.75;;;;;;;19.01;35.72;100933.19;4862605;29;20025;-76
2021/03/05 10:27:16;;;;;;;21.83;16.27;;;;;;;19.12;35.92;100938.00;4861608;29;20120;-74
2021/03/05 10:30:07;;;;;;;18.83;14.93;;;;;;;19.22;35.07;100937.47;4861840;29;20374;-75
2021/03/05 10:32:53;;;;;;;23.77;14.75;;;;;;;19.01;34.30;100929.72;4861282;29;20048;-76
2021/03/05 10:35:38;;;;;;;22.48;15.07;;;;;;;19.12;34.20;100922.94;4862332;29;20162;-75
2021/03/05 10:38:24;;;;;;;20.33;14.90;;;;;;;19.69;33.31;100919.16;4861828;29;20030;-75
2021/03/05 10:41:10;;;;;;;23.15;13.52;;;;;;;19.58;32.65;100921.53;4861382;29;20340;-77
2021/03/05 10:43:56;;;;;;;19.20;13.48;;;;;;;19.35;32.37;100907.66;4862639;29;20041;-76
2021/03/05 10:46:42;;;;;;;18.33;14.30;;;;;;;19.51;32.89;100913.91;4861805;29;20037;-75
2021/03/05 10:49:29;;;;;;;16.10;12.80;;;;;;;19.71;31.30;100911.97;4862372;29;20029;-74
2021/03/05 10:52:16;;;;;;;19.10;13.95;;;;;;;19.73;31.54;100904.75;4861718;29;20177;-74
2021/03/05 10:55:02;;;;;;;20.23;14.13;;;;;;;20.16;31.43;100906.03;4862114;29;20160;-75
2021/03/05 10:57:48;;;;;;;25.02;17.25;;;;;;;19.84;31.96;100905.06;4860815;29;20482;-74
2021/03/05 11:00:34;;;;;;;19.27;14.27;;;;;;;19.87;31.82;100898.72;4861445;29;20106;-76
2021/03/05 11:03:20;;;;;;;21.23;14.80;;;;;;;20.29;31.54;100899.16;4861695;29;20434;-75
2021/03/05 11:06:05;;;;;;;22.48;15.70;;;;;;;20.23;31.72;100892.34;4860413;29;20112;-74
2021/03/05 11:08:51;;;;;;;22.15;15.82;;;;;;;19.85;31.91;100889.97;4861845;29;20033;-74
2021/03/05 11:11:37;;;;;;;22.58;15.00;;;;;;;20.33;31.58;100885.56;4861756;29;20037;-75
2021/03/05 11:14:24;;;;;;;17.50;14.13;;;;;;;20.30;30.62;100880.44;4860850;29;20036;-75
2021/03/05 11:17:10;;;;;;;21.50;14.68;;;;;;;20.06;31.09;100868.44;4861579;29;20032;-74
2021/03/05 11:19:59;;;;;;;28.30;15.15;;;;;;;19.98;31.62;100872.44;4861865;29;20128;-74
2021/03/05 11:22:45;;;;;;;20.10;14.70;;;;;;;20.34;31.98;100860.69;4860642;29;20030;-75
2021/03/05 11:25:30;;;;;;;26.50;13.65;;;;;;;20.56;30.91;100852.34;4863219;29;20061;-75
2021/03/05 11:28:16;;;;;;;18.85;13.23;;;;;;;20.58;30.17;100847.81;4864657;29;20048;-72
2021/03/05 11:31:02;;;;;;;19.23;13.98;;;;;;;20.77;30.17;100852.00;4865571;29;20095;-71
2021/03/05 11:33:48;;;;;;;19.70;13.77;;;;;;;20.92;29.82;100835.19;4863957;29;20116;-77
2021/03/05 11:36:34;;;;;;;20.25;13.75;;;;;;;21.14;30.04;100842.78;4864706;29;20412;-75
2021/03/05 11:39:20;;;;;;;18.90;13.30;;;;;;;21.47;29.45;100838.97;4877367;29;20037;-74
2021/03/05 11:42:06;;;;;;;18.95;13.80;;;;;;;20.99;29.33;100836.56;4865128;29;20117;-75
2021/03/05 11:44:51;;;;;;;21.00;13.98;;;;;;;21.10;29.36;100833.25;4865364;29;20036;-74
2021/03/05 11:47:37;;;;;;;21.00;13.55;;;;;;;20.67;29.15;100829.53;4864485;29;20037;-75
2021/03/05 11:50:23;;;;;;;21.10;13.85;;;;;;;21.01;29.33;100826.66;4864926;29;20447;-75
2021/03/05 11:53:09;;;;;;;22.63;14.82;;;;;;;20.96;30.23;100822.53;4864789;29;20033;-75
2021/03/05 11:55:55;;;;;;;25.38;15.50;;;;;;;20.98;30.28;100818.81;4864104;29;20473;-74
2021/03/05 11:58:40;;;;;;;22.45;15.38;;;;;;;20.93;30.82;100818.25;4863376;29;20045;-75
2021/03/05 12:01:26;;;;;;;20.52;14.70;;;;;;;21.10;30.63;100818.09;4864683;29;20116;-76
2021/03/05 12:04:12;;;;;;;20.85;13.75;;;;;;;21.16;30.28;100817.75;4863877;29;20111;-75
2021/03/05 12:06:58;;;;;;;20.10;14.60;;;;;;;21.08;30.05;100827.13;4865367;29;20065;-74
2021/03/05 12:09:43;;;;;;;18.30;13.95;;;;;;;21.04;28.88;100818.47;4864012;29;20041;-74
2021/03/05 12:12:29;;;;;;;17.10;12.63;;;;;;;21.00;28.85;100808.09;4864767;29;20057;-75
2021/03/05 12:15:16;;;;;;;22.20;13.70;;;;;;;20.90;29.74;100810.38;4864139;29;20037;-76
2021/03/05 12:18:01;;;;;;;19.65;13.57;;;;;;;20.81;29.32;100800.28;4863983;29;20037;-77
2021/03/05 12:20:47;;;;;;;24.63;13.93;;;;;;;21.17;29.19;100807.94;4864531;29;20029;-76
2021/03/05 12:23:33;;;;;;;20.70;13.63;;;;;;;21.13;29.41;100806.44;4864540;29;20131;-75
2021/03/05 12:26:19;;;;;;;22.10;14.18;;;;;;;21.04;29.23;100799.84;4863620;29;20459;-75
2021/03/05 12:29:05;;;;;;;19.17;13.23;;;;;;;20.88;29.27;100796.31;4863466;29;20025;-75
2021/03/05 12:31:50;;;;;;;24.15;14.25;;;;;;;21.02;29.60;100792.88;4864117;29;20352;-75
2021/03/05 12:34:36;;;;;;;24.23;14.60;;;;;;;21.50;29.71;100788.13;4863088;29;20116;-75
2021/03/05 12:37:22;;;;;;;21.50;13.45;;;;;;;21.30;29.59;100787.63;4863801;29;20095;-75
2021/03/05 12:40:08;;;;;;;26.90;13.43;;;;;;;21.35;29.56;100788.19;4862776;29;20043;-75
2021/03/05 12:42:55;;;;;;;23.35;14.68;;;;;;;21.47;29.27;100788.31;4864804;29;20471;-75
2021/03/05 12:45:41;;;;;;;20.58;13.55;;;;;;;21.44;28.36;100785.84;4863489;29;20033;-75